sensor_id;sensor_type;location;lat;lon;timestamp;pressure;altitude;pressure_sealevel;temperature;humidity
72262;BME280;60173;52.112;8.648;2022-11-14T00:01:06;100876.50;;;2.59;94.89
72262;BME280;60173;52.112;8.648;2022-11-14T00:03:33;100873.03;;;2.35;95.55
72262;BME280;60173;52.112;8.648;2022-11-14T00:06:04;100876.75;;;2.34;97.54
72262;BME280;60173;52.112;8.648;2022-11-14T00:08:30;100879.78;;;2.37;98.71
72262;BME280;60173;52.112;8.648;2022-11-14T00:10:57;100878.94;;;2.48;99.18
72262;BME280;60173;52.112;8.648;2022-11-14T00:13:23;100886.66;;;2.45;98.73
72262;BME280;60173;52.112;8.648;2022-11-14T00:15:51;100879.19;;;2.47;98.71
72262;BME280;60173;52.112;8.648;2022-11-14T00:18:17;100877.91;;;2.38;98.36
72262;BME280;60173;52.112;8.648;2022-11-14T00:20:48;100888.06;;;2.24;98.35
72262;BME280;60173;52.112;8.648;2022-11-14T00:23:14;100880.59;;;2.14;98.36
72262;BME280;60173;52.112;8.648;2022-11-14T00:25:42;100871.63;;;2.20;98.53
72262;BME280;60173;52.112;8.648;2022-11-14T00:28:09;100873.84;;;2.12;99.10
72262;BME280;60173;52.112;8.648;2022-11-14T00:30:35;100869.75;;;2.09;99.30
72262;BME280;60173;52.112;8.648;2022-11-14T00:33:02;100863.56;;;2.09;99.41
72262;BME280;60173;52.112;8.648;2022-11-14T00:35:28;100857.84;;;2.05;99.39
72262;BME280;60173;52.112;8.648;2022-11-14T00:37:55;100857.97;;;1.98;99.05
72262;BME280;60173;52.112;8.648;2022-11-14T00:40:21;100852.03;;;2.08;98.81
72262;BME280;60173;52.112;8.648;2022-11-14T00:42:47;100849.72;;;2.00;98.19
72262;BME280;60173;52.112;8.648;2022-11-14T00:45:14;100841.91;;;2.34;96.90
72262;BME280;60173;52.112;8.648;2022-11-14T00:47:40;100851.22;;;2.31;95.80
72262;BME280;60173;52.112;8.648;2022-11-14T00:50:07;100851.13;;;2.14;95.86
72262;BME280;60173;52.112;8.648;2022-11-14T00:52:33;100843.41;;;2.06;96.15
72262;BME280;60173;52.112;8.648;2022-11-14T00:55:00;100843.63;;;2.04;96.45
72262;BME280;60173;52.112;8.648;2022-11-14T00:57:26;100840.16;;;2.04;96.61
72262;BME280;60173;52.112;8.648;2022-11-14T00:59:52;100840.38;;;2.02;97.62
72262;BME280;60173;52.112;8.648;2022-11-14T01:02:19;100835.50;;;2.11;97.51
72262;BME280;60173;52.112;8.648;2022-11-14T01:04:45;100839.09;;;2.17;97.05
72262;BME280;60173;52.112;8.648;2022-11-14T01:07:11;100832.31;;;2.02;97.62
72262;BME280;60173;52.112;8.648;2022-11-14T01:09:38;100830.81;;;1.95;98.40
72262;BME280;60173;52.112;8.648;2022-11-14T01:12:04;100832.09;;;1.92;98.97
72262;BME280;60173;52.112;8.648;2022-11-14T01:14:30;100828.28;;;2.00;99.24
72262;BME280;60173;52.112;8.648;2022-11-14T01:16:57;100815.81;;;2.29;98.35
72262;BME280;60173;52.112;8.648;2022-11-14T01:19:23;100815.09;;;2.10;97.88
72262;BME280;60173;52.112;8.648;2022-11-14T01:21:49;100804.97;;;2.12;97.82
72262;BME280;60173;52.112;8.648;2022-11-14T01:24:16;100807.06;;;2.10;98.03
72262;BME280;60173;52.112;8.648;2022-11-14T01:26:42;100815.22;;;2.15;98.43
72262;BME280;60173;52.112;8.648;2022-11-14T01:29:08;100812.09;;;2.07;98.42
72262;BME280;60173;52.112;8.648;2022-11-14T01:31:35;100804.50;;;2.15;98.51
72262;BME280;60173;52.112;8.648;2022-11-14T01:34:01;100801.69;;;2.34;97.21
72262;BME280;60173;52.112;8.648;2022-11-14T01:36:27;100794.94;;;2.19;96.16
72262;BME280;60173;52.112;8.648;2022-11-14T01:38:54;100791.34;;;2.02;97.20
72262;BME280;60173;52.112;8.648;2022-11-14T01:41:20;100790.41;;;1.96;97.47
72262;BME280;60173;52.112;8.648;2022-11-14T01:43:48;100777.25;;;1.83;98.10
72262;BME280;60173;52.112;8.648;2022-11-14T01:48:50;100768.88;;;2.03;98.21
72262;BME280;60173;52.112;8.648;2022-11-14T01:51:22;100764.88;;;1.94;97.57
72262;BME280;60173;52.112;8.648;2022-11-14T01:53:53;100767.47;;;2.00;97.23
72262;BME280;60173;52.112;8.648;2022-11-14T01:56:25;100762.94;;;1.77;98.07
72262;BME280;60173;52.112;8.648;2022-11-14T01:59:05;100761.06;;;1.90;97.50
72262;BME280;60173;52.112;8.648;2022-11-14T02:01:35;100767.09;;;1.85;97.04
72262;BME280;60173;52.112;8.648;2022-11-14T02:04:04;100759.66;;;1.64;98.10
72262;BME280;60173;52.112;8.648;2022-11-14T02:06:35;100758.50;;;1.83;98.17
72262;BME280;60173;52.112;8.648;2022-11-14T02:09:03;100755.22;;;1.93;97.17
72262;BME280;60173;52.112;8.648;2022-11-14T02:11:34;100755.00;;;1.83;96.60
72262;BME280;60173;52.112;8.648;2022-11-14T02:14:01;100750.47;;;1.95;96.36
72262;BME280;60173;52.112;8.648;2022-11-14T02:16:28;100746.72;;;1.96;95.87
72262;BME280;60173;52.112;8.648;2022-11-14T02:18:54;100744.50;;;1.93;95.53
72262;BME280;60173;52.112;8.648;2022-11-14T02:21:21;100737.75;;;1.90;95.79
72262;BME280;60173;52.112;8.648;2022-11-14T02:23:47;100735.44;;;1.70;96.44
72262;BME280;60173;52.112;8.648;2022-11-14T02:26:18;100732.53;;;1.60;97.44
72262;BME280;60173;52.112;8.648;2022-11-14T02:28:45;100731.94;;;1.58;97.96
72262;BME280;60173;52.112;8.648;2022-11-14T02:31:12;100732.66;;;1.53;98.16
72262;BME280;60173;52.112;8.648;2022-11-14T02:33:38;100733.78;;;1.46;98.41
72262;BME280;60173;52.112;8.648;2022-11-14T02:36:05;100732.72;;;1.47;98.91
72262;BME280;60173;52.112;8.648;2022-11-14T02:38:31;100732.72;;;1.47;99.28
72262;BME280;60173;52.112;8.648;2022-11-14T02:40:59;100725.31;;;1.61;99.35
72262;BME280;60173;52.112;8.648;2022-11-14T02:43:25;100722.75;;;1.54;99.19
72262;BME280;60173;52.112;8.648;2022-11-14T02:45:52;100716.31;;;1.43;99.34
72262;BME280;60173;52.112;8.648;2022-11-14T02:48:18;100724.03;;;1.51;99.48
72262;BME280;60173;52.112;8.648;2022-11-14T02:50:47;100708.44;;;1.48;99.14
72262;BME280;60173;52.112;8.648;2022-11-14T02:53:13;100713.78;;;1.48;98.94
72262;BME280;60173;52.112;8.648;2022-11-14T02:55:40;100719.47;;;1.52;98.68
72262;BME280;60173;52.112;8.648;2022-11-14T02:58:06;100715.88;;;1.46;98.74
72262;BME280;60173;52.112;8.648;2022-11-14T03:00:33;100716.31;;;1.43;98.87
72262;BME280;60173;52.112;8.648;2022-11-14T03:02:59;100716.34;;;1.67;97.88
72262;BME280;60173;52.112;8.648;2022-11-14T03:05:26;100710.16;;;1.43;97.56
72262;BME280;60173;52.112;8.648;2022-11-14T03:07:53;100712.84;;;1.43;97.42
72262;BME280;60173;52.112;8.648;2022-11-14T03:10:20;100710.81;;;1.26;97.58
72262;BME280;60173;52.112;8.648;2022-11-14T03:12:47;100708.28;;;1.31;98.01
72262;BME280;60173;52.112;8.648;2022-11-14T03:15:13;100706.53;;;1.25;98.15
72262;BME280;60173;52.112;8.648;2022-11-14T03:17:39;100703.84;;;1.25;98.16
72262;BME280;60173;52.112;8.648;2022-11-14T03:20:06;100708.88;;;1.33;98.49
72262;BME280;60173;52.112;8.648;2022-11-14T03:22:33;100701.44;;;1.59;97.88
72262;BME280;60173;52.112;8.648;2022-11-14T03:24:59;100698.41;;;1.55;97.30
72262;BME280;60173;52.112;8.648;2022-11-14T03:27:26;100691.88;;;1.16;96.93
72262;BME280;60173;52.112;8.648;2022-11-14T03:29:52;100693.28;;;0.88;97.07
72262;BME280;60173;52.112;8.648;2022-11-14T03:32:18;100688.13;;;0.75;97.23
72262;BME280;60173;52.112;8.648;2022-11-14T03:34:45;100684.47;;;0.58;97.29
72262;BME280;60173;52.112;8.648;2022-11-14T03:37:11;100681.97;;;0.44;97.18
72262;BME280;60173;52.112;8.648;2022-11-14T03:39:37;100679.84;;;0.35;97.28
72262;BME280;60173;52.112;8.648;2022-11-14T03:42:04;100686.13;;;0.40;97.46
72262;BME280;60173;52.112;8.648;2022-11-14T03:44:30;100694.91;;;0.29;97.30
72262;BME280;60173;52.112;8.648;2022-11-14T03:46:56;100688.91;;;0.15;97.18
72262;BME280;60173;52.112;8.648;2022-11-14T03:49:23;100689.50;;;0.17;97.36
72262;BME280;60173;52.112;8.648;2022-11-14T03:51:49;100677.19;;;0.16;97.48
72262;BME280;60173;52.112;8.648;2022-11-14T03:54:15;100678.84;;;0.48;97.23
72262;BME280;60173;52.112;8.648;2022-11-14T03:56:42;100676.28;;;0.41;96.86
72262;BME280;60173;52.112;8.648;2022-11-14T03:59:08;100676.44;;;0.28;96.84
72262;BME280;60173;52.112;8.648;2022-11-14T04:01:34;100674.88;;;0.20;96.74
72262;BME280;60173;52.112;8.648;2022-11-14T04:04:01;100664.50;;;0.12;96.72
72262;BME280;60173;52.112;8.648;2022-11-14T04:06:27;100675.84;;;0.26;97.06
72262;BME280;60173;52.112;8.648;2022-11-14T04:08:54;100667.75;;;0.32;97.16
72262;BME280;60173;52.112;8.648;2022-11-14T04:11:20;100667.31;;;0.35;97.06
72262;BME280;60173;52.112;8.648;2022-11-14T04:13:46;100663.03;;;0.46;97.14
72262;BME280;60173;52.112;8.648;2022-11-14T04:16:13;100662.97;;;0.53;96.98
72262;BME280;60173;52.112;8.648;2022-11-14T04:18:39;100654.06;;;0.40;96.54
72262;BME280;60173;52.112;8.648;2022-11-14T04:21:05;100653.50;;;0.38;96.44
72262;BME280;60173;52.112;8.648;2022-11-14T04:23:32;100653.63;;;0.43;96.55
72262;BME280;60173;52.112;8.648;2022-11-14T04:25:58;100648.28;;;0.43;96.86
72262;BME280;60173;52.112;8.648;2022-11-14T04:28:24;100651.06;;;0.49;96.84
72262;BME280;60173;52.112;8.648;2022-11-14T04:30:51;100643.38;;;0.40;96.61
72262;BME280;60173;52.112;8.648;2022-11-14T04:33:17;100639.47;;;0.55;96.99
72262;BME280;60173;52.112;8.648;2022-11-14T04:35:43;100645.34;;;0.75;96.72
72262;BME280;60173;52.112;8.648;2022-11-14T04:38:10;100641.91;;;0.86;96.98
72262;BME280;60173;52.112;8.648;2022-11-14T04:40:36;100647.25;;;0.86;97.05
72262;BME280;60173;52.112;8.648;2022-11-14T04:43:02;100636.47;;;0.93;97.46
72262;BME280;60173;52.112;8.648;2022-11-14T04:45:29;100640.63;;;0.89;96.86
72262;BME280;60173;52.112;8.648;2022-11-14T04:47:55;100632.56;;;0.77;96.85
72262;BME280;60173;52.112;8.648;2022-11-14T04:50:22;100631.66;;;0.83;97.61
72262;BME280;60173;52.112;8.648;2022-11-14T04:52:51;100628.78;;;0.85;98.57
72262;BME280;60173;52.112;8.648;2022-11-14T04:55:18;100615.53;;;0.90;99.25
72262;BME280;60173;52.112;8.648;2022-11-14T04:57:44;100623.94;;;1.17;98.44
72262;BME280;60173;52.112;8.648;2022-11-14T05:00:11;100629.94;;;0.89;98.43
72262;BME280;60173;52.112;8.648;2022-11-14T05:02:38;100624.41;;;0.72;99.79
72262;BME280;60173;52.112;8.648;2022-11-14T05:05:04;100626.25;;;0.60;100.00
72262;BME280;60173;52.112;8.648;2022-11-14T05:07:31;100619.28;;;0.59;100.00
72262;BME280;60173;52.112;8.648;2022-11-14T05:09:57;100620.19;;;0.53;100.00
72262;BME280;60173;52.112;8.648;2022-11-14T05:12:23;100618.38;;;0.65;100.00
72262;BME280;60173;52.112;8.648;2022-11-14T05:14:50;100622.16;;;0.87;100.00
72262;BME280;60173;52.112;8.648;2022-11-14T05:17:16;100628.31;;;0.58;100.00
72262;BME280;60173;52.112;8.648;2022-11-14T05:19:42;100619.97;;;0.54;100.00
72262;BME280;60173;52.112;8.648;2022-11-14T05:22:09;100617.28;;;0.54;100.00
72262;BME280;60173;52.112;8.648;2022-11-14T05:24:35;100624.88;;;0.69;100.00
72262;BME280;60173;52.112;8.648;2022-11-14T05:27:01;100618.19;;;0.78;100.00
72262;BME280;60173;52.112;8.648;2022-11-14T05:29:28;100622.88;;;0.53;100.00
72262;BME280;60173;52.112;8.648;2022-11-14T05:31:54;100610.66;;;0.87;100.00
72262;BME280;60173;52.112;8.648;2022-11-14T05:34:21;100616.09;;;0.92;99.28
72262;BME280;60173;52.112;8.648;2022-11-14T05:36:47;100621.66;;;0.67;99.18
72262;BME280;60173;52.112;8.648;2022-11-14T05:39:14;100614.66;;;0.66;99.48
72262;BME280;60173;52.112;8.648;2022-11-14T05:41:40;100609.56;;;0.76;99.55
72262;BME280;60173;52.112;8.648;2022-11-14T05:44:07;100611.47;;;0.87;98.81
72262;BME280;60173;52.112;8.648;2022-11-14T05:46:33;100608.31;;;0.79;98.44
72262;BME280;60173;52.112;8.648;2022-11-14T05:49:00;100605.13;;;0.70;98.16
72262;BME280;60173;52.112;8.648;2022-11-14T05:51:26;100600.94;;;0.74;98.10
72262;BME280;60173;52.112;8.648;2022-11-14T05:53:52;100603.03;;;0.72;97.46
72262;BME280;60173;52.112;8.648;2022-11-14T05:56:19;100602.53;;;0.52;97.33
72262;BME280;60173;52.112;8.648;2022-11-14T05:58:45;100599.72;;;0.47;98.14
72262;BME280;60173;52.112;8.648;2022-11-14T06:03:40;100591.81;;;0.52;98.96
72262;BME280;60173;52.112;8.648;2022-11-14T06:06:09;100595.13;;;0.65;98.55
72262;BME280;60173;52.112;8.648;2022-11-14T06:08:36;100595.38;;;0.64;98.02
72262;BME280;60173;52.112;8.648;2022-11-14T06:11:08;100604.88;;;0.60;97.42
72262;BME280;60173;52.112;8.648;2022-11-14T06:13:35;100605.09;;;0.47;97.80
72262;BME280;60173;52.112;8.648;2022-11-14T06:16:07;100607.31;;;0.31;97.90
72262;BME280;60173;52.112;8.648;2022-11-14T06:18:34;100598.75;;;0.29;98.17
72262;BME280;60173;52.112;8.648;2022-11-14T06:21:03;100598.31;;;0.14;98.20
72262;BME280;60173;52.112;8.648;2022-11-14T06:23:30;100592.88;;;-0.10;98.10
72262;BME280;60173;52.112;8.648;2022-11-14T06:26:01;100589.78;;;0.05;98.52
72262;BME280;60173;52.112;8.648;2022-11-14T06:28:27;100595.28;;;0.10;98.67
72262;BME280;60173;52.112;8.648;2022-11-14T06:30:58;100585.97;;;0.01;98.63
72262;BME280;60173;52.112;8.648;2022-11-14T06:33:25;100589.59;;;0.07;98.72
72262;BME280;60173;52.112;8.648;2022-11-14T06:35:59;100579.66;;;-0.05;98.84
72262;BME280;60173;52.112;8.648;2022-11-14T06:38:26;100583.69;;;-0.14;98.88
72262;BME280;60173;52.112;8.648;2022-11-14T06:41:10;100577.91;;;-0.11;98.93
72262;BME280;60173;52.112;8.648;2022-11-14T06:43:39;100582.56;;;-0.25;98.79
72262;BME280;60173;52.112;8.648;2022-11-14T06:46:08;100577.31;;;-0.31;98.68
72262;BME280;60173;52.112;8.648;2022-11-14T06:48:35;100575.47;;;-0.31;98.46
72262;BME280;60173;52.112;8.648;2022-11-14T06:51:03;100576.56;;;-0.38;98.51
72262;BME280;60173;52.112;8.648;2022-11-14T06:53:31;100569.66;;;-0.28;98.64
72262;BME280;60173;52.112;8.648;2022-11-14T06:56:12;100576.25;;;-0.12;98.44
72262;BME280;60173;52.112;8.648;2022-11-14T06:58:41;100577.13;;;0.01;98.24
72262;BME280;60173;52.112;8.648;2022-11-14T07:01:26;100571.03;;;0.12;98.32
72262;BME280;60173;52.112;8.648;2022-11-14T07:03:52;100574.69;;;0.29;98.72
72262;BME280;60173;52.112;8.648;2022-11-14T07:06:22;100567.94;;;0.80;98.76
72262;BME280;60173;52.112;8.648;2022-11-14T07:08:50;100569.69;;;0.86;98.38
72262;BME280;60173;52.112;8.648;2022-11-14T07:11:19;100568.09;;;0.97;98.14
72262;BME280;60173;52.112;8.648;2022-11-14T07:13:45;100571.34;;;0.99;97.93
72262;BME280;60173;52.112;8.648;2022-11-14T07:16:12;100574.59;;;1.01;98.11
72262;BME280;60173;52.112;8.648;2022-11-14T07:18:38;100582.63;;;1.01;98.21
72262;BME280;60173;52.112;8.648;2022-11-14T07:21:05;100579.38;;;0.99;98.41
72262;BME280;60173;52.112;8.648;2022-11-14T07:23:34;100574.38;;;1.03;98.52
72262;BME280;60173;52.112;8.648;2022-11-14T07:26:01;100576.13;;;1.09;98.67
72262;BME280;60173;52.112;8.648;2022-11-14T07:28:28;100571.81;;;1.08;98.78
72262;BME280;60173;52.112;8.648;2022-11-14T07:30:55;100570.19;;;1.19;98.72
72262;BME280;60173;52.112;8.648;2022-11-14T07:33:22;100568.34;;;1.31;98.55
72262;BME280;60173;52.112;8.648;2022-11-14T07:35:49;100571.81;;;1.31;98.52
72262;BME280;60173;52.112;8.648;2022-11-14T07:38:16;100577.84;;;1.27;98.29
72262;BME280;60173;52.112;8.648;2022-11-14T07:40:42;100574.38;;;1.26;98.16
72262;BME280;60173;52.112;8.648;2022-11-14T07:43:08;100569.72;;;1.33;98.38
72262;BME280;60173;52.112;8.648;2022-11-14T07:45:35;100576.47;;;1.48;98.50
72262;BME280;60173;52.112;8.648;2022-11-14T07:48:01;100564.81;;;1.54;98.48
72262;BME280;60173;52.112;8.648;2022-11-14T07:50:28;100559.31;;;1.61;98.34
72262;BME280;60173;52.112;8.648;2022-11-14T07:52:55;100561.16;;;1.72;98.45
72262;BME280;60173;52.112;8.648;2022-11-14T07:55:22;100557.38;;;1.85;98.56
72262;BME280;60173;52.112;8.648;2022-11-14T07:57:52;100563.53;;;1.97;98.53
72262;BME280;60173;52.112;8.648;2022-11-14T08:00:18;100560.72;;;2.03;98.34
72262;BME280;60173;52.112;8.648;2022-11-14T08:02:46;100563.19;;;2.22;98.62
72262;BME280;60173;52.112;8.648;2022-11-14T08:05:12;100565.34;;;2.37;98.26
72262;BME280;60173;52.112;8.648;2022-11-14T08:07:39;100565.63;;;2.52;98.10
72262;BME280;60173;52.112;8.648;2022-11-14T08:10:06;100560.00;;;2.54;97.79
72262;BME280;60173;52.112;8.648;2022-11-14T08:12:32;100567.06;;;2.60;97.68
72262;BME280;60173;52.112;8.648;2022-11-14T08:14:59;100559.53;;;2.74;97.64
72262;BME280;60173;52.112;8.648;2022-11-14T08:17:25;100555.97;;;2.85;97.78
72262;BME280;60173;52.112;8.648;2022-11-14T08:19:51;100560.34;;;2.91;97.70
72262;BME280;60173;52.112;8.648;2022-11-14T08:22:18;100559.44;;;3.02;97.73
72262;BME280;60173;52.112;8.648;2022-11-14T08:24:44;100568.28;;;3.20;97.47
72262;BME280;60173;52.112;8.648;2022-11-14T08:27:10;100565.78;;;3.30;97.25
72262;BME280;60173;52.112;8.648;2022-11-14T08:29:37;100558.84;;;3.34;96.79
72262;BME280;60173;52.112;8.648;2022-11-14T08:32:03;100558.31;;;3.54;96.54
72262;BME280;60173;52.112;8.648;2022-11-14T08:34:29;100562.97;;;3.63;95.90
72262;BME280;60173;52.112;8.648;2022-11-14T08:36:56;100557.75;;;3.74;95.49
72262;BME280;60173;52.112;8.648;2022-11-14T08:39:22;100554.56;;;3.77;94.94
72262;BME280;60173;52.112;8.648;2022-11-14T08:41:49;100550.97;;;3.93;94.82
72262;BME280;60173;52.112;8.648;2022-11-14T08:44:15;100541.28;;;4.14;94.83
72262;BME280;60173;52.112;8.648;2022-11-14T08:46:42;100549.69;;;4.23;94.02
72262;BME280;60173;52.112;8.648;2022-11-14T08:49:08;100540.34;;;4.30;93.44
72262;BME280;60173;52.112;8.648;2022-11-14T08:51:34;100543.94;;;4.41;93.27
72262;BME280;60173;52.112;8.648;2022-11-14T08:54:02;100556.94;;;4.49;92.93
72262;BME280;60173;52.112;8.648;2022-11-14T08:56:28;100558.56;;;4.50;92.13
72262;BME280;60173;52.112;8.648;2022-11-14T08:58:55;100557.00;;;4.60;91.58
72262;BME280;60173;52.112;8.648;2022-11-14T09:01:21;100553.84;;;4.68;91.19
72262;BME280;60173;52.112;8.648;2022-11-14T09:03:47;100556.13;;;4.81;90.59
72262;BME280;60173;52.112;8.648;2022-11-14T09:06:14;100555.94;;;4.93;89.68
72262;BME280;60173;52.112;8.648;2022-11-14T09:08:40;100554.63;;;4.95;89.25
72262;BME280;60173;52.112;8.648;2022-11-14T09:11:07;100552.47;;;4.92;88.36
72262;BME280;60173;52.112;8.648;2022-11-14T09:13:35;100559.53;;;5.04;88.78
72262;BME280;60173;52.112;8.648;2022-11-14T09:16:02;100549.88;;;5.08;88.05
72262;BME280;60173;52.112;8.648;2022-11-14T09:18:29;100556.41;;;5.22;88.38
72262;BME280;60173;52.112;8.648;2022-11-14T09:21:03;100552.72;;;5.33;87.77
72262;BME280;60173;52.112;8.648;2022-11-14T09:23:31;100558.38;;;5.37;87.16
72262;BME280;60173;52.112;8.648;2022-11-14T09:26:05;100557.63;;;5.47;86.32
72262;BME280;60173;52.112;8.648;2022-11-14T09:28:33;100546.88;;;5.52;86.17
72262;BME280;60173;52.112;8.648;2022-11-14T09:31:09;100546.13;;;5.66;86.17
72262;BME280;60173;52.112;8.648;2022-11-14T09:33:36;100539.41;;;5.69;86.08
72262;BME280;60173;52.112;8.648;2022-11-14T09:36:05;100539.47;;;5.79;86.03
72262;BME280;60173;52.112;8.648;2022-11-14T09:38:32;100533.25;;;5.74;85.57
72262;BME280;60173;52.112;8.648;2022-11-14T09:46:24;100520.19;;;6.08;83.54
72262;BME280;60173;52.112;8.648;2022-11-14T09:48:52;100526.13;;;6.15;82.85
72262;BME280;60173;52.112;8.648;2022-11-14T09:51:21;100514.78;;;6.18;82.66
72262;BME280;60173;52.112;8.648;2022-11-14T09:53:59;100519.66;;;6.21;83.23
72262;BME280;60173;52.112;8.648;2022-11-14T09:56:28;100511.84;;;6.30;82.17
72262;BME280;60173;52.112;8.648;2022-11-14T09:58:55;100507.81;;;6.43;83.06
72262;BME280;60173;52.112;8.648;2022-11-14T10:06:41;100497.31;;;6.51;81.23
72262;BME280;60173;52.112;8.648;2022-11-14T10:09:33;100494.34;;;6.68;80.58
72262;BME280;60173;52.112;8.648;2022-11-14T10:12:10;100485.69;;;6.46;80.52
72262;BME280;60173;52.112;8.648;2022-11-14T10:17:38;100469.50;;;6.66;81.25
72262;BME280;60173;52.112;8.648;2022-11-14T10:20:45;100477.03;;;6.79;80.76
72262;BME280;60173;52.112;8.648;2022-11-14T10:25:44;100474.25;;;7.20;78.99
72262;BME280;60173;52.112;8.648;2022-11-14T10:28:45;100466.66;;;7.17;78.85
72262;BME280;60173;52.112;8.648;2022-11-14T10:37:21;100465.94;;;7.66;77.99
72262;BME280;60173;52.112;8.648;2022-11-14T10:42:45;100463.72;;;7.79;76.89
72262;BME280;60173;52.112;8.648;2022-11-14T10:47:51;100453.06;;;7.92;76.54
72262;BME280;60173;52.112;8.648;2022-11-14T10:50:27;100459.78;;;8.05;77.01
72262;BME280;60173;52.112;8.648;2022-11-14T10:52:57;100463.47;;;8.20;76.62
72262;BME280;60173;52.112;8.648;2022-11-14T10:55:26;100462.81;;;8.33;74.66
72262;BME280;60173;52.112;8.648;2022-11-14T10:58:13;100450.94;;;8.29;74.51
72262;BME280;60173;52.112;8.648;2022-11-14T11:00:39;100446.88;;;8.31;74.26
72262;BME280;60173;52.112;8.648;2022-11-14T11:03:05;100448.19;;;8.34;75.67
72262;BME280;60173;52.112;8.648;2022-11-14T11:05:44;100432.75;;;8.40;74.57
72262;BME280;60173;52.112;8.648;2022-11-14T11:08:11;100437.38;;;8.39;75.36
72262;BME280;60173;52.112;8.648;2022-11-14T11:10:58;100434.09;;;8.37;74.98
72262;BME280;60173;52.112;8.648;2022-11-14T11:13:54;100419.72;;;8.42;75.14
72262;BME280;60173;52.112;8.648;2022-11-14T11:16:22;100440.94;;;8.64;73.81
72262;BME280;60173;52.112;8.648;2022-11-14T11:18:49;100438.97;;;8.69;73.65
72262;BME280;60173;52.112;8.648;2022-11-14T11:21:21;100438.19;;;8.69;73.26
72262;BME280;60173;52.112;8.648;2022-11-14T11:23:53;100445.38;;;8.78;73.06
72262;BME280;60173;52.112;8.648;2022-11-14T11:31:57;100419.47;;;8.96;71.99
72262;BME280;60173;52.112;8.648;2022-11-14T11:34:26;100429.84;;;8.89;72.29
72262;BME280;60173;52.112;8.648;2022-11-14T11:39:48;100424.78;;;9.07;70.44
72262;BME280;60173;52.112;8.648;2022-11-14T11:42:25;100428.81;;;9.09;70.04
72262;BME280;60173;52.112;8.648;2022-11-14T11:45:17;100425.75;;;9.16;70.47
72262;BME280;60173;52.112;8.648;2022-11-14T11:47:49;100424.00;;;9.25;70.17
72262;BME280;60173;52.112;8.648;2022-11-14T11:50:19;100426.94;;;9.28;69.90
72262;BME280;60173;52.112;8.648;2022-11-14T11:56:11;100429.38;;;9.30;71.45
72262;BME280;60173;52.112;8.648;2022-11-14T11:58:50;100417.25;;;9.46;69.30
72262;BME280;60173;52.112;8.648;2022-11-14T12:01:17;100423.16;;;9.48;70.77
72262;BME280;60173;52.112;8.648;2022-11-14T12:03:47;100412.25;;;9.54;70.38
72262;BME280;60173;52.112;8.648;2022-11-14T12:06:18;100418.72;;;9.58;69.86
72262;BME280;60173;52.112;8.648;2022-11-14T12:11:37;100403.47;;;9.62;68.88
72262;BME280;60173;52.112;8.648;2022-11-14T12:14:37;100398.44;;;9.55;67.64
72262;BME280;60173;52.112;8.648;2022-11-14T12:17:34;100401.94;;;9.74;66.62
72262;BME280;60173;52.112;8.648;2022-11-14T12:23:17;100403.91;;;9.69;67.92
72262;BME280;60173;52.112;8.648;2022-11-14T12:31:32;100378.25;;;9.80;67.39
72262;BME280;60173;52.112;8.648;2022-11-14T12:34:06;100377.75;;;9.78;66.76
72262;BME280;60173;52.112;8.648;2022-11-14T12:36:43;100377.75;;;9.78;68.37
72262;BME280;60173;52.112;8.648;2022-11-14T12:39:21;100377.22;;;9.76;67.69
72262;BME280;60173;52.112;8.648;2022-11-14T12:41:49;100373.66;;;9.81;68.16
72262;BME280;60173;52.112;8.648;2022-11-14T12:52:45;100369.81;;;9.82;68.71
72262;BME280;60173;52.112;8.648;2022-11-14T13:00:27;100353.94;;;9.75;67.23
72262;BME280;60173;52.112;8.648;2022-11-14T13:11:43;100337.28;;;9.82;67.34
72262;BME280;60173;52.112;8.648;2022-11-14T13:14:09;100332.66;;;9.82;68.31
72262;BME280;60173;52.112;8.648;2022-11-14T13:16:36;100332.78;;;9.91;68.05
72262;BME280;60173;52.112;8.648;2022-11-14T13:21:35;100330.72;;;10.02;68.49
72262;BME280;60173;52.112;8.648;2022-11-14T13:24:10;100334.81;;;9.99;68.53
72262;BME280;60173;52.112;8.648;2022-11-14T13:26:38;100333.13;;;10.03;68.98
72262;BME280;60173;52.112;8.648;2022-11-14T13:29:05;100343.16;;;10.03;69.48
72262;BME280;60173;52.112;8.648;2022-11-14T13:34:27;100331.41;;;9.93;70.42
72262;BME280;60173;52.112;8.648;2022-11-14T13:37:04;100334.81;;;9.99;70.42
72262;BME280;60173;52.112;8.648;2022-11-14T13:45:03;100320.81;;;9.92;71.14
72262;BME280;60173;52.112;8.648;2022-11-14T13:50:16;100311.41;;;9.89;71.26
72262;BME280;60173;52.112;8.648;2022-11-14T13:52:45;100305.66;;;9.91;71.17
72262;BME280;60173;52.112;8.648;2022-11-14T13:55:30;100310.41;;;9.99;70.90
72262;BME280;60173;52.112;8.648;2022-11-14T14:03:33;100301.47;;;9.99;70.86
72262;BME280;60173;52.112;8.648;2022-11-14T14:06:18;100291.16;;;9.82;71.93
72262;BME280;60173;52.112;8.648;2022-11-14T14:16:59;100266.44;;;9.69;72.79
72262;BME280;60173;52.112;8.648;2022-11-14T14:22:30;100260.50;;;9.67;72.84
72262;BME280;60173;52.112;8.648;2022-11-14T14:27:53;100258.06;;;9.66;72.52
72262;BME280;60173;52.112;8.648;2022-11-14T14:30:22;100259.91;;;9.70;72.22
72262;BME280;60173;52.112;8.648;2022-11-14T14:35:34;100268.88;;;9.52;72.84
72262;BME280;60173;52.112;8.648;2022-11-14T14:38:21;100274.44;;;9.42;72.95
72262;BME280;60173;52.112;8.648;2022-11-14T14:40:48;100271.00;;;9.36;72.89
72262;BME280;60173;52.112;8.648;2022-11-14T14:43:35;100266.19;;;9.33;73.26
72262;BME280;60173;52.112;8.648;2022-11-14T14:46:02;100271.53;;;9.38;73.27
72262;BME280;60173;52.112;8.648;2022-11-14T14:48:30;100260.34;;;9.26;73.91
72262;BME280;60173;52.112;8.648;2022-11-14T14:51:00;100270.06;;;9.27;73.95
72262;BME280;60173;52.112;8.648;2022-11-14T14:53:34;100257.81;;;9.11;74.26
72262;BME280;60173;52.112;8.648;2022-11-14T14:56:12;100254.53;;;9.14;74.28
72262;BME280;60173;52.112;8.648;2022-11-14T14:58:42;100256.81;;;9.07;74.33
72262;BME280;60173;52.112;8.648;2022-11-14T15:03:38;100242.91;;;8.94;74.71
72262;BME280;60173;52.112;8.648;2022-11-14T15:06:27;100240.63;;;8.82;74.88